createdAt,value
2022-11-01T00:01:59.090Z,100540.63
2022-11-01T00:04:26.122Z,100532.06
2022-11-01T00:06:52.814Z,100538.66
2022-11-01T00:09:19.533Z,100532.22
2022-11-01T00:11:46.512Z,100540.81
2022-11-01T00:14:15.845Z,100544.38
2022-11-01T00:16:42.820Z,100548.69
2022-11-01T00:19:10.038Z,100543.94
2022-11-01T00:21:36.696Z,100543.63
2022-11-01T00:24:03.478Z,100544.41
2022-11-01T00:26:30.079Z,100545.84
2022-11-01T00:28:56.894Z,100536.53
2022-11-01T00:31:23.902Z,100549.28
2022-11-01T00:33:50.702Z,100542.09
2022-11-01T00:36:17.485Z,100539.78
2022-11-01T00:38:44.202Z,100536.97
2022-11-01T00:41:10.830Z,100532.41
2022-11-01T00:43:37.585Z,100534.25
2022-11-01T00:46:04.951Z,100525.75
2022-11-01T00:48:31.997Z,100527.81
2022-11-01T00:50:58.689Z,100529.53
2022-11-01T00:53:25.431Z,100533.19
2022-11-01T00:55:52.329Z,100533.13
2022-11-01T00:58:19.123Z,100522.66
2022-11-01T01:00:48.048Z,100517.94
2022-11-01T01:03:15.184Z,100523.13
2022-11-01T01:05:41.799Z,100513.00
2022-11-01T01:08:08.469Z,100511.69
2022-11-01T01:10:35.382Z,100511.28
2022-11-01T01:13:02.419Z,100525.78
2022-11-01T01:15:29.233Z,100520.59
2022-11-01T01:17:55.927Z,100514.34
2022-11-01T01:20:23.172Z,100520.91
2022-11-01T01:22:50.222Z,100501.50
2022-11-01T01:25:17.525Z,100502.34
2022-11-01T01:27:44.144Z,100490.19
2022-11-01T01:30:11.383Z,100490.53
2022-11-01T01:32:38.026Z,100493.56
2022-11-01T01:35:05.099Z,100490.19
2022-11-01T01:37:31.755Z,100493.03
2022-11-01T01:39:58.632Z,100478.97
2022-11-01T01:42:28.474Z,100476.94
2022-11-01T01:44:55.257Z,100471.72
2022-11-01T01:47:23.842Z,100481.63
2022-11-01T01:50:13.732Z,100484.19
2022-11-01T01:52:47.998Z,100484.41
2022-11-01T01:55:18.822Z,100480.63
2022-11-01T01:57:46.073Z,100476.88
2022-11-01T02:00:13.593Z,100483.69
2022-11-01T02:02:42.180Z,100480.00
2022-11-01T02:05:37.211Z,100475.72
2022-11-01T02:08:05.570Z,100467.91
2022-11-01T02:10:33.020Z,100458.28
2022-11-01T02:12:59.530Z,100451.13
2022-11-01T02:15:36.834Z,100437.50
2022-11-01T02:18:16.234Z,100437.66
2022-11-01T02:21:16.041Z,100432.88
2022-11-01T02:24:01.465Z,100420.72
2022-11-01T02:26:46.372Z,100416.25
2022-11-01T02:29:41.841Z,100422.44
2022-11-01T02:32:17.682Z,100410.84
2022-11-01T02:35:03.100Z,100407.22
2022-11-01T02:37:44.142Z,100401.13
2022-11-01T02:40:17.325Z,100405.69
2022-11-01T02:42:48.657Z,100408.25
2022-11-01T02:45:29.569Z,100402.47
2022-11-01T02:47:58.006Z,100411.94
2022-11-01T02:50:27.969Z,100407.88
2022-11-01T02:52:55.369Z,100412.16
2022-11-01T02:55:30.142Z,100409.34
2022-11-01T02:58:06.552Z,100404.38
2022-11-01T03:00:35.635Z,100406.81
2022-11-01T03:03:16.760Z,100404.16
2022-11-01T03:05:49.394Z,100391.44
2022-11-01T03:08:20.726Z,100383.66
2022-11-01T03:11:05.857Z,100378.03
2022-11-01T03:13:47.751Z,100378.47
2022-11-01T03:16:20.311Z,100384.59
2022-11-01T03:19:09.211Z,100380.13
2022-11-01T03:21:47.643Z,100379.19
2022-11-01T03:24:22.944Z,100381.56
2022-11-01T03:27:01.039Z,100368.97
2022-11-01T03:29:28.814Z,100370.31
2022-11-01T03:31:56.811Z,100374.31
2022-11-01T03:34:25.249Z,100362.63
2022-11-01T03:37:00.668Z,100375.81
2022-11-01T03:39:36.886Z,100370.22
2022-11-01T03:42:07.805Z,100378.50
2022-11-01T03:44:39.616Z,100372.59
2022-11-01T03:47:06.413Z,100369.41
2022-11-01T03:49:32.991Z,100368.25
2022-11-01T03:51:59.678Z,100364.91
2022-11-01T03:54:27.308Z,100360.44
2022-11-01T03:56:54.034Z,100353.22
2022-11-01T03:59:20.937Z,100361.97
2022-11-01T04:01:47.688Z,100362.53
2022-11-01T04:04:14.438Z,100364.00
2022-11-01T04:06:41.167Z,100367.28
2022-11-01T04:09:08.066Z,100365.75
2022-11-01T04:11:34.702Z,100359.88
2022-11-01T04:14:21.563Z,100362.34
2022-11-01T04:17:06.447Z,100364.34
2022-11-01T04:19:51.657Z,100363.75
2022-11-01T04:22:20.706Z,100358.56
2022-11-01T04:24:50.284Z,100368.63
2022-11-01T04:27:16.902Z,100354.75
2022-11-01T04:29:43.501Z,100354.19
2022-11-01T04:32:10.075Z,100349.44
2022-11-01T04:34:42.776Z,100349.78
2022-11-01T04:37:10.231Z,100337.47
2022-11-01T04:39:37.369Z,100320.72
2022-11-01T04:42:04.301Z,100338.97
2022-11-01T04:44:31.044Z,100321.50
2022-11-01T04:46:57.653Z,100339.81
2022-11-01T04:49:24.288Z,100337.63
2022-11-01T04:51:50.949Z,100346.53
2022-11-01T04:54:17.584Z,100346.28
2022-11-01T04:56:44.234Z,100347.34
2022-11-01T04:59:10.785Z,100343.25
2022-11-01T05:01:37.448Z,100334.81
2022-11-01T05:04:04.333Z,100338.50
2022-11-01T05:06:30.977Z,100360.66
2022-11-01T05:08:57.603Z,100339.56
2022-11-01T05:11:25.860Z,100349.06
2022-11-01T05:13:52.875Z,100340.28
2022-11-01T05:16:20.640Z,100333.66
2022-11-01T05:18:48.425Z,100326.03
2022-11-01T05:21:15.106Z,100341.44
2022-11-01T05:23:41.769Z,100346.56
2022-11-01T05:26:08.498Z,100336.28
2022-11-01T05:28:35.070Z,100329.84
2022-11-01T05:31:01.778Z,100330.38
2022-11-01T05:33:28.386Z,100323.72
2022-11-01T05:35:55.026Z,100342.78
2022-11-01T05:38:21.613Z,100349.03
2022-11-01T05:40:48.429Z,100350.94
2022-11-01T05:43:15.074Z,100357.41
2022-11-01T05:45:41.949Z,100367.09
2022-11-01T05:48:09.348Z,100361.56
2022-11-01T05:50:35.907Z,100369.53
2022-11-01T05:53:07.408Z,100368.06
2022-11-01T05:55:34.934Z,100379.47
2022-11-01T05:58:01.652Z,100369.56
2022-11-01T06:00:28.393Z,100367.69
2022-11-01T06:02:58.089Z,100374.78
2022-11-01T06:05:25.847Z,100381.81
2022-11-01T06:07:53.322Z,100377.75
2022-11-01T06:10:20.117Z,100390.31
2022-11-01T06:12:46.747Z,100378.50
2022-11-01T06:15:13.547Z,100373.59
2022-11-01T06:17:40.156Z,100373.00
2022-11-01T06:20:07.193Z,100367.38
2022-11-01T06:22:38.656Z,100370.50
2022-11-01T06:25:06.162Z,100379.66
2022-11-01T06:27:32.654Z,100379.19
2022-11-01T06:29:59.290Z,100378.31
2022-11-01T06:32:25.910Z,100389.06
2022-11-01T06:34:52.534Z,100388.28
2022-11-01T06:37:19.111Z,100389.03
2022-11-01T06:39:45.891Z,100389.59
2022-11-01T06:42:12.445Z,100396.97
2022-11-01T06:44:39.070Z,100403.25
2022-11-01T06:47:05.748Z,100392.72
2022-11-01T06:49:32.372Z,100400.06
2022-11-01T06:51:58.980Z,100407.56
2022-11-01T06:54:25.894Z,100405.50
2022-11-01T06:56:52.514Z,100404.97
2022-11-01T06:59:19.303Z,100408.84
2022-11-01T07:01:46.108Z,100406.41
2022-11-01T07:04:13.156Z,100412.41
2022-11-01T07:06:39.923Z,100412.41
2022-11-01T07:09:06.722Z,100410.88
2022-11-01T07:11:33.786Z,100413.59
2022-11-01T07:14:00.431Z,100409.16
2022-11-01T07:16:27.405Z,100411.34
2022-11-01T07:18:54.052Z,100409.66
2022-11-01T07:21:22.004Z,100406.75
2022-11-01T07:23:49.226Z,100414.31
2022-11-01T07:26:16.170Z,100412.38
2022-11-01T07:28:42.865Z,100421.38
2022-11-01T07:31:09.468Z,100428.13
2022-11-01T07:33:36.302Z,100439.81
2022-11-01T07:36:04.417Z,100439.13
2022-11-01T07:38:31.300Z,100436.81
2022-11-01T07:40:58.274Z,100435.47
2022-11-01T07:43:24.965Z,100430.66
2022-11-01T07:45:51.689Z,100429.47
2022-11-01T07:48:19.626Z,100435.91
2022-11-01T07:50:46.786Z,100443.16
2022-11-01T07:53:18.485Z,100445.84
2022-11-01T07:55:46.223Z,100448.34
2022-11-01T07:58:13.704Z,100439.88
2022-11-01T08:00:44.390Z,100446.28
2022-11-01T08:03:16.140Z,100445.75
2022-11-01T08:05:43.892Z,100449.06
2022-11-01T08:08:11.113Z,100453.75
2022-11-01T08:10:39.177Z,100454.63
2022-11-01T08:13:25.246Z,100448.50
2022-11-01T08:15:53.260Z,100452.72
2022-11-01T08:18:22.588Z,100448.75
2022-11-01T08:20:49.523Z,100451.84
2022-11-01T08:23:16.644Z,100459.31
2022-11-01T08:25:43.329Z,100471.50
2022-11-01T08:28:16.060Z,100475.78
2022-11-01T08:30:44.145Z,100473.22
2022-11-01T08:33:11.593Z,100458.03
2022-11-01T08:35:55.460Z,100471.69
2022-11-01T08:38:22.093Z,100479.31
2022-11-01T08:40:48.790Z,100479.41
2022-11-01T08:43:15.543Z,100480.47
2022-11-01T08:45:42.131Z,100488.41
2022-11-01T08:48:09.895Z,100482.00
2022-11-01T08:50:36.523Z,100491.91
2022-11-01T08:53:13.840Z,100491.97
2022-11-01T08:55:40.737Z,100500.78
2022-11-01T08:58:08.105Z,100499.47
2022-11-01T09:00:35.263Z,100499.72
2022-11-01T09:03:02.010Z,100495.91
2022-11-01T09:05:31.280Z,100493.47
2022-11-01T09:08:00.728Z,100498.84
2022-11-01T09:10:29.271Z,100501.72
2022-11-01T09:12:55.921Z,100500.53
2022-11-01T09:15:22.653Z,100494.81
2022-11-01T09:17:49.252Z,100506.47
2022-11-01T09:20:15.982Z,100503.44
2022-11-01T09:22:42.608Z,100497.47
2022-11-01T09:25:09.814Z,100506.00
2022-11-01T09:27:36.374Z,100507.28
2022-11-01T09:30:04.851Z,100513.66
2022-11-01T09:32:31.528Z,100505.63
2022-11-01T09:34:58.141Z,100500.97
2022-11-01T09:37:24.767Z,100506.56
2022-11-01T09:39:51.402Z,100506.69
2022-11-01T09:42:24.101Z,100517.69
2022-11-01T09:44:55.069Z,100521.84
2022-11-01T09:47:25.460Z,100516.63
2022-11-01T09:50:16.809Z,100507.69
2022-11-01T09:52:43.605Z,100510.03
2022-11-01T09:55:15.372Z,100521.44
2022-11-01T09:58:01.642Z,100520.56
2022-11-01T10:00:35.938Z,100519.88
2022-11-01T10:03:30.171Z,100516.75
2022-11-01T10:06:02.395Z,100543.69
2022-11-01T10:08:37.773Z,100549.94
2022-11-01T10:11:45.882Z,100554.69
2022-11-01T10:14:39.966Z,100556.22
2022-11-01T10:17:09.571Z,100549.69
2022-11-01T10:19:38.483Z,100542.94
2022-11-01T10:22:12.032Z,100547.16
2022-11-01T10:24:52.647Z,100548.50
2022-11-01T10:27:53.111Z,100568.09
2022-11-01T10:30:20.402Z,100566.78
2022-11-01T10:32:49.881Z,100567.69
2022-11-01T10:35:34.858Z,100564.13
2022-11-01T10:38:38.089Z,100552.41
2022-11-01T10:41:22.619Z,100550.28
2022-11-01T10:43:57.872Z,100564.00
2022-11-01T10:46:28.280Z,100564.38
2022-11-01T10:49:01.703Z,100560.88
2022-11-01T10:51:31.463Z,100564.97
2022-11-01T10:54:02.973Z,100561.59
2022-11-01T10:56:41.933Z,100563.81
2022-11-01T10:59:25.667Z,100563.13
2022-11-01T11:01:55.014Z,100572.13
2022-11-01T11:04:24.710Z,100564.22
2022-11-01T11:06:52.010Z,100561.88
2022-11-01T11:09:28.194Z,100570.94
2022-11-01T11:12:02.070Z,100566.03
2022-11-01T11:14:32.261Z,100570.13
2022-11-01T11:17:00.966Z,100568.88
2022-11-01T11:19:30.643Z,100560.22
2022-11-01T11:21:59.233Z,100567.00
2022-11-01T11:24:28.658Z,100568.34
2022-11-01T11:26:56.749Z,100558.22
2022-11-01T11:29:48.950Z,100555.78
2022-11-01T11:32:20.513Z,100551.16
2022-11-01T11:34:55.290Z,100569.72
2022-11-01T11:37:24.810Z,100582.78
2022-11-01T11:40:03.367Z,100581.25
2022-11-01T11:42:33.394Z,100566.09
2022-11-01T11:45:23.140Z,100563.97
2022-11-01T11:47:50.408Z,100569.75
2022-11-01T11:50:19.925Z,100565.94
2022-11-01T11:53:14.946Z,100568.03
2022-11-01T11:55:45.456Z,100565.63
2022-11-01T11:58:20.287Z,100567.09
2022-11-01T12:01:08.767Z,100581.81
2022-11-01T12:03:57.531Z,100579.25
2022-11-01T12:06:27.026Z,100591.66
2022-11-01T12:08:57.474Z,100593.44
2022-11-01T12:11:25.524Z,100597.56
2022-11-01T12:14:03.809Z,100591.72
2022-11-01T12:16:39.050Z,100603.56
2022-11-01T12:19:06.444Z,100601.88
2022-11-01T12:21:43.522Z,100601.31
2022-11-01T12:24:22.655Z,100596.41
2022-11-01T12:26:51.976Z,100598.00
2022-11-01T12:29:40.506Z,100601.47
2022-11-01T12:32:15.740Z,100598.97
2022-11-01T12:34:46.869Z,100599.72
2022-11-01T12:37:21.319Z,100601.03
2022-11-01T12:40:15.292Z,100602.22
2022-11-01T12:42:51.356Z,100604.06
2022-11-01T12:45:24.405Z,100613.63
2022-11-01T12:47:57.183Z,100603.09
2022-11-01T12:50:50.255Z,100605.84
2022-11-01T12:53:22.244Z,100613.84
2022-11-01T12:55:48.905Z,100616.19
2022-11-01T12:58:18.704Z,100614.47
2022-11-01T13:00:54.848Z,100617.34
2022-11-01T13:03:34.567Z,100630.63
2022-11-01T13:06:16.206Z,100629.06
2022-11-01T13:09:01.137Z,100621.28
2022-11-01T13:11:40.047Z,100636.91
2022-11-01T13:14:31.723Z,100638.66
2022-11-01T13:17:25.717Z,100635.06
2022-11-01T13:20:10.565Z,100640.34
2022-11-01T13:22:47.474Z,100644.44
2022-11-01T13:25:24.072Z,100641.91
2022-11-01T13:27:53.385Z,100641.06
2022-11-01T13:30:20.895Z,100641.56
2022-11-01T13:33:20.241Z,100634.41
2022-11-01T13:36:26.137Z,100639.31
2022-11-01T13:39:38.662Z,100640.22
2022-11-01T13:42:19.107Z,100642.66
2022-11-01T13:44:55.062Z,100654.84
2022-11-01T13:47:29.206Z,100652.13
2022-11-01T13:50:04.858Z,100667.28
2022-11-01T13:52:33.809Z,100650.47
2022-11-01T13:55:23.302Z,100671.41
2022-11-01T13:57:50.215Z,100663.72
2022-11-01T14:00:38.276Z,100670.19
2022-11-01T14:03:18.447Z,100672.16
2022-11-01T14:05:46.390Z,100683.13
2022-11-01T14:08:15.590Z,100685.59
2022-11-01T14:10:46.886Z,100685.09
2022-11-01T14:13:19.398Z,100696.09
2022-11-01T14:15:55.387Z,100695.84
2022-11-01T14:18:22.047Z,100696.25
2022-11-01T14:20:50.929Z,100689.44
2022-11-01T14:23:29.922Z,100691.84
2022-11-01T14:26:18.559Z,100695.41
2022-11-01T14:28:47.059Z,100709.06
2022-11-01T14:31:15.752Z,100715.94
2022-11-01T14:33:44.032Z,100709.06
2022-11-01T14:36:13.079Z,100705.09
2022-11-01T14:38:54.643Z,100712.56
2022-11-01T14:41:24.514Z,100709.13
2022-11-01T14:46:39.087Z,100716.50
2022-11-01T14:49:35.138Z,100724.31
2022-11-01T14:52:08.541Z,100719.78
2022-11-01T14:54:46.626Z,100730.16
2022-11-01T14:57:28.039Z,100727.44
2022-11-01T14:59:56.308Z,100735.81
2022-11-01T15:02:24.145Z,100733.91
2022-11-01T15:04:57.615Z,100730.72
2022-11-01T15:07:30.879Z,100733.94
2022-11-01T15:10:11.867Z,100740.56
2022-11-01T15:12:48.402Z,100738.84
2022-11-01T15:15:21.383Z,100740.84
2022-11-01T15:17:54.797Z,100744.72
2022-11-01T15:20:22.869Z,100735.94
2022-11-01T15:22:54.437Z,100735.41
2022-11-01T15:25:26.439Z,100739.47
2022-11-01T15:27:55.475Z,100749.22
2022-11-01T15:30:24.032Z,100757.22
2022-11-01T15:33:12.044Z,100749.56
2022-11-01T15:35:38.806Z,100756.59
2022-11-01T15:38:20.579Z,100757.28
2022-11-01T15:40:50.272Z,100752.56
2022-11-01T15:43:19.469Z,100760.50
2022-11-01T15:45:52.136Z,100759.00
2022-11-01T15:48:22.670Z,100759.72
2022-11-01T15:50:53.560Z,100758.56
2022-11-01T15:53:26.849Z,100765.63
2022-11-01T15:56:03.517Z,100770.75
2022-11-01T15:58:39.829Z,100768.38
2022-11-01T16:01:14.743Z,100767.31
2022-11-01T16:03:48.419Z,100771.56
2022-11-01T16:06:45.210Z,100773.13
2022-11-01T16:09:38.327Z,100776.00
2022-11-01T16:12:14.605Z,100775.09
2022-11-01T16:14:41.856Z,100777.34
2022-11-01T16:17:31.761Z,100780.31
2022-11-01T16:19:58.814Z,100780.53
2022-11-01T16:22:38.282Z,100785.13
2022-11-01T16:25:10.048Z,100781.69
2022-11-01T16:27:57.351Z,100776.63
2022-11-01T16:30:39.069Z,100784.00
2022-11-01T16:33:20.982Z,100782.13
2022-11-01T16:35:53.421Z,100779.22
2022-11-01T16:38:33.034Z,100787.34
2022-11-01T16:41:02.042Z,100790.53
2022-11-01T16:43:31.489Z,100799.81
2022-11-01T16:45:58.953Z,100795.75
2022-11-01T16:48:31.429Z,100797.56
2022-11-01T16:50:59.732Z,100805.66
2022-11-01T16:53:30.356Z,100808.25
2022-11-01T16:56:34.478Z,100816.16
2022-11-01T16:58:57.448Z,100813.97
2022-11-01T17:01:35.377Z,100815.03
2022-11-01T17:04:03.007Z,100820.03
2022-11-01T17:06:32.308Z,100814.88
2022-11-01T17:09:01.381Z,100820.91
2022-11-01T17:11:27.978Z,100819.44
2022-11-01T17:13:54.650Z,100810.84
2022-11-01T17:16:27.444Z,100820.34
2022-11-01T17:18:57.570Z,100823.31
2022-11-01T17:21:27.797Z,100829.63
2022-11-01T17:23:54.953Z,100826.41
2022-11-01T17:26:23.808Z,100825.81
2022-11-01T17:28:52.447Z,100829.78
2022-11-01T17:31:19.361Z,100828.44
2022-11-01T17:33:46.046Z,100823.72
2022-11-01T17:36:17.178Z,100830.97
2022-11-01T17:38:44.941Z,100829.81
2022-11-01T17:41:17.925Z,100840.75
2022-11-01T17:43:44.562Z,100837.09
2022-11-01T17:46:24.529Z,100829.66
2022-11-01T17:48:51.257Z,100831.31
2022-11-01T17:51:18.067Z,100832.00
2022-11-01T17:53:44.811Z,100835.56
2022-11-01T17:56:11.387Z,100830.06
2022-11-01T17:58:38.054Z,100833.75
2022-11-01T18:01:05.037Z,100834.69
2022-11-01T18:03:31.871Z,100839.88
2022-11-01T18:06:01.836Z,100845.03
2022-11-01T18:08:33.477Z,100839.03
2022-11-01T18:11:48.324Z,100838.50
2022-11-01T18:14:22.301Z,100840.94
2022-11-01T18:16:57.935Z,100844.59
2022-11-01T18:19:36.779Z,100836.09
2022-11-01T18:22:28.322Z,100843.59
2022-11-01T18:25:02.663Z,100834.25
2022-11-01T18:27:37.739Z,100835.22
2022-11-01T18:30:19.569Z,100831.91
2022-11-01T18:32:54.016Z,100845.56
2022-11-01T18:35:30.667Z,100839.66
2022-11-01T18:38:14.719Z,100843.03
2022-11-01T18:40:56.782Z,100848.13
2022-11-01T18:43:24.262Z,100850.09
2022-11-01T18:46:19.097Z,100848.59
2022-11-01T18:48:37.582Z,100842.94
2022-11-01T18:51:12.963Z,100839.25
2022-11-01T18:53:39.629Z,100836.69
2022-11-01T18:56:25.710Z,100849.09
2022-11-01T18:58:54.045Z,100841.84
2022-11-01T19:01:31.760Z,100839.53
2022-11-01T19:04:01.972Z,100847.03
2022-11-01T19:06:31.519Z,100850.00
2022-11-01T19:09:09.694Z,100850.56
2022-11-01T19:11:36.189Z,100861.06
2022-11-01T19:14:03.173Z,100853.28
2022-11-01T19:16:29.851Z,100860.19
2022-11-01T19:18:56.458Z,100866.56
2022-11-01T19:21:23.942Z,100866.19
2022-11-01T19:23:54.749Z,100863.13
2022-11-01T19:26:27.112Z,100871.22
2022-11-01T19:28:54.082Z,100865.19
2022-11-01T19:31:32.856Z,100862.03
2022-11-01T19:34:02.986Z,100861.94
2022-11-01T19:36:40.807Z,100861.41
2022-11-01T19:39:29.503Z,100855.06
2022-11-01T19:42:06.497Z,100857.50
2022-11-01T19:44:33.301Z,100858.91
2022-11-01T19:47:22.574Z,100863.28
2022-11-01T19:49:49.420Z,100863.56
2022-11-01T19:52:24.713Z,100861.06
2022-11-01T19:54:53.253Z,100867.59
2022-11-01T19:57:34.767Z,100864.13
2022-11-01T20:00:11.174Z,100869.69
2022-11-01T20:02:38.634Z,100877.47
2022-11-01T20:05:23.750Z,100867.00
2022-11-01T20:07:51.019Z,100872.38
2022-11-01T20:10:18.330Z,100883.69
2022-11-01T20:12:45.174Z,100885.84
2022-11-01T20:15:11.769Z,100884.84
2022-11-01T20:17:38.441Z,100883.38
2022-11-01T20:20:06.491Z,100883.19
2022-11-01T20:22:33.208Z,100883.41
2022-11-01T20:25:00.803Z,100879.88
2022-11-01T20:27:27.441Z,100889.28
2022-11-01T20:29:54.068Z,100884.75
2022-11-01T20:32:20.706Z,100885.91
2022-11-01T20:34:47.291Z,100892.88
2022-11-01T20:37:28.124Z,100889.78
2022-11-01T20:39:55.326Z,100890.63
2022-11-01T20:42:22.060Z,100895.72
2022-11-01T20:44:48.665Z,100895.16
2022-11-01T20:47:15.264Z,100907.72
2022-11-01T20:49:41.975Z,100897.91
2022-11-01T20:52:34.021Z,100896.31
2022-11-01T20:54:55.268Z,100896.66
2022-11-01T20:57:28.023Z,100909.16
2022-11-01T20:59:56.798Z,100908.78
2022-11-01T21:02:23.566Z,100914.59
2022-11-01T21:04:59.722Z,100910.44
2022-11-01T21:07:29.938Z,100913.72
2022-11-01T21:09:57.153Z,100912.88
2022-11-01T21:12:42.557Z,100909.31
2022-11-01T21:15:34.207Z,100923.88
2022-11-01T21:18:22.552Z,100920.91
2022-11-01T21:20:49.466Z,100924.72
2022-11-01T21:23:29.181Z,100920.72
2022-11-01T21:25:59.161Z,100929.25
2022-11-01T21:28:44.313Z,100930.53
2022-11-01T21:31:10.865Z,100927.53
2022-11-01T21:33:40.519Z,100936.00
2022-11-01T21:36:41.482Z,100927.47
2022-11-01T21:39:15.452Z,100928.16
2022-11-01T21:41:44.861Z,100930.69
2022-11-01T21:44:15.170Z,100927.63
2022-11-01T21:46:46.037Z,100933.03
2022-11-01T21:49:24.282Z,100930.84
2022-11-01T21:51:51.446Z,100934.81
2022-11-01T21:54:18.377Z,100921.25
2022-11-01T21:56:45.136Z,100923.50
2022-11-01T21:59:11.761Z,100917.00
2022-11-01T22:01:43.226Z,100917.50
2022-11-01T22:04:09.960Z,100917.50
2022-11-01T22:06:36.688Z,100915.59
2022-11-01T22:09:03.785Z,100905.56
2022-11-01T22:11:32.708Z,100895.25
2022-11-01T22:13:59.674Z,100901.75
2022-11-01T22:16:26.552Z,100909.69
2022-11-01T22:18:53.265Z,100900.91
2022-11-01T22:21:20.028Z,100904.91
2022-11-01T22:23:46.683Z,100905.22
2022-11-01T22:26:13.379Z,100901.41
2022-11-01T22:28:40.105Z,100900.47
2022-11-01T22:31:06.827Z,100901.97
2022-11-01T22:33:34.566Z,100907.28
2022-11-01T22:36:02.488Z,100906.72
2022-11-01T22:38:39.026Z,100906.28
2022-11-01T22:41:19.528Z,100904.00
2022-11-01T22:43:47.989Z,100908.13
2022-11-01T22:46:25.913Z,100902.00
2022-11-01T22:49:00.491Z,100899.31
2022-11-01T22:51:39.156Z,100913.13
2022-11-01T22:54:21.468Z,100898.03
2022-11-01T22:56:58.068Z,100894.53
2022-11-01T22:59:29.335Z,100905.56
2022-11-01T23:02:07.399Z,100897.63
2022-11-01T23:04:34.642Z,100900.13
2022-11-01T23:07:02.605Z,100898.47
2022-11-01T23:09:29.295Z,100900.31
2022-11-01T23:12:15.935Z,100893.81
2022-11-01T23:14:47.921Z,100902.66
2022-11-01T23:17:22.012Z,100893.50
2022-11-01T23:19:57.095Z,100887.19
2022-11-01T23:22:26.768Z,100892.31
2022-11-01T23:24:53.861Z,100899.34
2022-11-01T23:27:22.090Z,100892.19
2022-11-01T23:29:52.056Z,100904.38
2022-11-01T23:32:19.025Z,100895.50
2022-11-01T23:34:46.790Z,100901.66
2022-11-01T23:37:18.216Z,100895.94
2022-11-01T23:39:46.090Z,100897.50
2022-11-01T23:42:25.723Z,100899.41
2022-11-01T23:44:55.790Z,100891.16
2022-11-01T23:47:41.663Z,100888.75
2022-11-01T23:50:22.264Z,100878.69
2022-11-01T23:53:00.460Z,100881.56
2022-11-01T23:55:33.489Z,100877.84
2022-11-01T23:58:05.553Z,100872.63
